Time;durP1;ratioP1;P1;durP2;ratioP2;P2;SDS_P1;SDS_P2;PMS_P1;PMS_P2;Temp;Humidity;BMP_temperature;BMP_pressure;BME280_temperature;BME280_humidity;BME280_pressure;Samples;Min_cycle;Max_cycle;Signal;HPM_P1;HPM_P2
2020/12/28 00:02:24;;;;;;;;;;;;;;;16.81;62.18;98704.47;5028775;28;1384;-67
2020/12/28 00:04:52;;;;;;;;;;;;;;;16.82;62.11;98694.81;5023120;28;1915;-66
2020/12/28 00:07:18;;;;;;;;;;;;;;;16.82;62.29;98690.38;5027823;28;1333;-66
2020/12/28 00:09:44;;;;;;;;;;;;;;;16.79;62.37;98685.38;5028175;28;1377;-66
2020/12/28 00:12:15;;;;;;;;;;;;;;;16.96;62.34;98676.13;5005863;28;1344;-69
2020/12/28 00:14:41;;;;;;;;;;;;;;;16.90;62.25;98669.56;5010510;28;1337;-70
2020/12/28 00:17:10;;;;;;;;;;;;;;;16.80;62.12;98660.75;5028317;28;1363;-67
2020/12/28 00:19:36;;;;;;;;;;;;;;;16.75;62.17;98655.03;5028059;28;1568;-68
2020/12/28 00:22:02;;;;;;;;;;;;;;;16.71;62.32;98632.59;5027308;28;1298;-69
2020/12/28 00:24:28;;;;;;;;;;;;;;;16.72;62.14;98626.34;5027644;28;2005;-70
2020/12/28 00:26:55;;;;;;;;;;;;;;;16.71;61.77;98624.69;5027587;28;1329;-70
2020/12/28 00:29:21;;;;;;;;;;;;;;;16.69;61.74;98616.09;5010306;28;1322;-69
2020/12/28 00:31:52;;;;;;;;;;;;;;;16.69;61.89;98623.97;5010001;28;1374;-69
2020/12/28 00:34:18;;;;;;;;;;;;;;;16.68;61.93;98619.69;5027657;28;1336;-69
2020/12/28 00:36:45;;;;;;;;;;;;;;;16.67;61.69;98615.38;5009576;28;1386;-68
2020/12/28 00:39:11;;;;;;;;;;;;;;;16.64;61.78;98607.75;5027595;28;1337;-70
2020/12/28 00:41:39;;;;;;;;;;;;;;;16.65;61.78;98608.59;5027801;28;1311;-69
2020/12/28 00:44:05;;;;;;;;;;;;;;;16.64;61.93;98607.75;5027603;28;1401;-70
2020/12/28 00:46:31;;;;;;;;;;;;;;;16.65;61.77;98596.28;5027718;28;2053;-69
2020/12/28 00:48:57;;;;;;;;;;;;;;;16.64;61.74;98602.50;5027594;28;1365;-69
2020/12/28 00:51:23;;;;;;;;;;;;;;;16.63;61.76;98608.69;5028129;28;1347;-70
2020/12/28 00:53:50;;;;;;;;;;;;;;;16.61;61.86;98600.13;5027272;28;1360;-70
2020/12/28 00:56:16;;;;;;;;;;;;;;;16.61;61.70;98597.50;5009872;28;1304;-69
2020/12/28 00:58:43;;;;;;;;;;;;;;;16.60;62.01;98598.44;5009646;28;1341;-70
2020/12/28 01:01:09;;;;;;;;;;;;;;;16.60;61.77;98590.53;5027878;28;1392;-68
2020/12/28 01:03:35;;;;;;;;;;;;;;;16.61;61.90;98592.22;5027452;28;1449;-68
2020/12/28 01:06:03;;;;;;;;;;;;;;;16.56;61.87;98594.41;5026170;28;1947;-69
2020/12/28 01:08:29;;;;;;;;;;;;;;;16.57;61.67;98585.53;5027542;28;1289;-67
2020/12/28 01:10:56;;;;;;;;;;;;;;;16.55;61.84;98581.38;5027868;28;1293;-68
2020/12/28 01:13:22;;;;;;;;;;;;;;;16.56;61.52;98572.53;5009596;28;1361;-64
2020/12/28 01:15:48;;;;;;;;;;;;;;;16.54;61.51;98577.03;5009597;28;1384;-68
2020/12/28 01:18:15;;;;;;;;;;;;;;;16.53;61.58;98570.97;5027186;28;1352;-68
2020/12/28 01:20:41;;;;;;;;;;;;;;;16.50;61.47;98565.97;5027717;28;1313;-68
2020/12/28 01:23:07;;;;;;;;;;;;;;;16.51;61.66;98572.03;5027248;28;1358;-68
2020/12/28 01:25:34;;;;;;;;;;;;;;;16.49;61.32;98566.91;5022070;28;1992;-68
2020/12/28 01:28:00;;;;;;;;;;;;;;;16.48;61.77;98559.97;5027212;28;1358;-68
2020/12/28 01:30:26;;;;;;;;;;;;;;;16.48;61.29;98556.50;5027123;28;1380;-68
2020/12/28 01:32:52;;;;;;;;;;;;;;;16.48;61.63;98546.84;5009193;28;1504;-68
2020/12/28 01:35:20;;;;;;;;;;;;;;;16.48;61.53;98538.94;5009578;28;1338;-68
2020/12/28 01:37:46;;;;;;;;;;;;;;;16.47;61.35;98532.06;5031031;28;1325;-67
2020/12/28 01:40:14;;;;;;;;;;;;;;;16.48;61.29;98525.81;5013334;28;1314;-66
2020/12/28 01:42:40;;;;;;;;;;;;;;;16.48;61.45;98520.56;5030727;28;1333;-69
2020/12/28 01:45:06;;;;;;;;;;;;;;;16.46;61.43;98517.22;5031012;28;1991;-67
2020/12/28 01:47:33;;;;;;;;;;;;;;;16.45;61.24;98510.31;5030917;28;1325;-68
2020/12/28 01:49:59;;;;;;;;;;;;;;;16.45;61.32;98512.94;5031309;28;1175;-68
2020/12/28 01:52:25;;;;;;;;;;;;;;;16.46;61.52;98514.59;5013457;28;1402;-69
2020/12/28 01:54:52;;;;;;;;;;;;;;;16.43;61.51;98512.22;5009069;28;1335;-67
2020/12/28 01:57:19;;;;;;;;;;;;;;;16.44;61.43;98521.78;5031108;28;1358;-68
2020/12/28 01:59:45;;;;;;;;;;;;;;;16.39;61.91;98531.81;5031097;28;1301;-67
2020/12/28 02:02:11;;;;;;;;;;;;;;;16.44;61.87;98542.81;5028181;28;1371;-69
2020/12/28 02:04:38;;;;;;;;;;;;;;;16.43;61.82;98549.00;5030333;28;1999;-68
2020/12/28 02:07:06;;;;;;;;;;;;;;;16.40;61.86;98536.13;5029637;28;1293;-68
2020/12/28 02:09:32;;;;;;;;;;;;;;;16.41;61.72;98533.34;5029991;28;1310;-68
2020/12/28 02:11:59;;;;;;;;;;;;;;;16.40;61.43;98538.75;5012511;28;1405;-69
2020/12/28 02:14:25;;;;;;;;;;;;;;;16.39;61.46;98539.72;5030748;28;1352;-68
2020/12/28 02:16:52;;;;;;;;;;;;;;;16.36;61.56;98524.19;5030618;28;1381;-68
2020/12/28 02:19:19;;;;;;;;;;;;;;;16.38;61.75;98522.28;5012570;28;1238;-69
2020/12/28 02:21:45;;;;;;;;;;;;;;;16.39;61.52;98521.31;5003212;28;1411;-70
2020/12/28 02:24:11;;;;;;;;;;;;;;;16.35;61.59;98518.09;5012498;28;1325;-69
2020/12/28 02:26:37;;;;;;;;;;;;;;;16.34;61.59;98516.44;5030431;28;1910;-70
2020/12/28 02:29:03;;;;;;;;;;;;;;;16.35;61.63;98512.84;5030557;28;1321;-68
2020/12/28 02:31:30;;;;;;;;;;;;;;;16.32;61.75;98505.22;5030312;28;1372;-70
2020/12/28 02:33:56;;;;;;;;;;;;;;;16.35;61.62;98483.94;5022954;28;1350;-69
2020/12/28 02:36:22;;;;;;;;;;;;;;;16.34;61.82;98476.19;5012636;28;1369;-68
2020/12/28 02:38:48;;;;;;;;;;;;;;;16.30;61.69;98472.97;5030214;28;1277;-70
2020/12/28 02:41:15;;;;;;;;;;;;;;;16.30;61.80;98472.16;5012293;28;1294;-68
2020/12/28 02:43:41;;;;;;;;;;;;;;;16.32;61.54;98465.00;4995853;28;1346;-66
2020/12/28 02:46:08;;;;;;;;;;;;;;;16.31;61.68;98473.81;4988837;28;1914;-69
2020/12/28 02:48:34;;;;;;;;;;;;;;;16.30;61.81;98466.88;5011765;28;1330;-69
2020/12/28 02:51:00;;;;;;;;;;;;;;;16.32;61.56;98471.06;5029925;28;1297;-70
2020/12/28 02:53:26;;;;;;;;;;;;;;;16.28;61.81;98464.41;5029596;28;1278;-68
2020/12/28 02:55:52;;;;;;;;;;;;;;;16.29;61.89;98452.91;5029800;28;1376;-68
2020/12/28 02:58:18;;;;;;;;;;;;;;;16.27;61.90;98454.84;5012430;28;1356;-68
2020/12/28 03:00:45;;;;;;;;;;;;;;;16.28;61.81;98443.38;5029627;28;1306;-67
2020/12/28 03:03:11;;;;;;;;;;;;;;;16.28;61.85;98432.03;5029809;28;1348;-68
2020/12/28 03:05:37;;;;;;;;;;;;;;;16.27;61.79;98439.09;5024417;28;1910;-70
2020/12/28 03:08:03;;;;;;;;;;;;;;;16.26;61.75;98437.41;5011678;28;1472;-68
2020/12/28 03:10:29;;;;;;;;;;;;;;;16.25;61.84;98429.66;5027970;28;1313;-68
2020/12/28 03:12:56;;;;;;;;;;;;;;;16.23;61.75;98429.78;5028947;28;1417;-69
2020/12/28 03:15:22;;;;;;;;;;;;;;;16.24;61.96;98420.09;5029174;28;1330;-69
2020/12/28 03:17:48;;;;;;;;;;;;;;;16.23;61.75;98413.22;5029115;28;1374;-69
2020/12/28 03:20:15;;;;;;;;;;;;;;;16.22;61.76;98411.53;5029012;28;1325;-69
2020/12/28 03:22:41;;;;;;;;;;;;;;;16.22;61.82;98414.16;5029051;28;1347;-68
2020/12/28 03:25:08;;;;;;;;;;;;;;;16.20;61.70;98416.09;5029375;28;1934;-69
2020/12/28 03:27:34;;;;;;;;;;;;;;;16.18;61.67;98410.94;5029085;28;1367;-69
2020/12/28 03:30:01;;;;;;;;;;;;;;;16.20;61.73;98418.72;5011281;28;1361;-69
2020/12/28 03:32:27;;;;;;;;;;;;;;;16.19;61.84;98406.53;5029819;28;1366;-69
2020/12/28 03:34:56;;;;;;;;;;;;;;;16.19;61.66;98407.38;5029213;28;1348;-69
2020/12/28 03:37:22;;;;;;;;;;;;;;;16.19;61.74;98402.13;5029265;28;1389;-69
2020/12/28 03:39:48;;;;;;;;;;;;;;;16.20;61.66;98387.19;5029370;28;1375;-68
2020/12/28 03:42:15;;;;;;;;;;;;;;;16.17;61.83;98382.19;5011336;28;1377;-69
2020/12/28 03:44:41;;;;;;;;;;;;;;;16.19;62.09;98372.38;5011039;28;1941;-69
2020/12/28 03:47:07;;;;;;;;;;;;;;;16.17;61.74;98371.69;5028955;28;1303;-69
2020/12/28 03:49:33;;;;;;;;;;;;;;;16.18;61.70;98378.59;5028525;28;1404;-69
2020/12/28 03:52:04;;;;;;;;;;;;;;;16.14;61.95;98367.50;5028824;28;1323;-69
2020/12/28 03:54:30;;;;;;;;;;;;;;;16.14;61.98;98367.50;5010659;28;1381;-69
2020/12/28 03:56:56;;;;;;;;;;;;;;;16.16;61.91;98364.75;5028247;28;1297;-69
2020/12/28 03:59:23;;;;;;;;;;;;;;;16.15;61.63;98370.97;4986011;28;1364;-69
2020/12/28 04:01:49;;;;;;;;;;;;;;;16.14;61.75;98362.25;5010730;28;1317;-69
2020/12/28 04:04:15;;;;;;;;;;;;;;;16.13;61.63;98352.72;5028217;28;1349;-69
2020/12/28 04:06:41;;;;;;;;;;;;;;;16.14;61.95;98348.31;5028537;28;1902;-69
2020/12/28 04:09:08;;;;;;;;;;;;;;;16.12;61.83;98360.72;5028414;28;1344;-70
2020/12/28 04:11:34;;;;;;;;;;;;;;;16.12;61.86;98352.84;5028453;28;1366;-69
2020/12/28 04:14:00;;;;;;;;;;;;;;;16.12;61.87;98345.78;5028580;28;1289;-68
2020/12/28 04:16:26;;;;;;;;;;;;;;;16.11;61.78;98351.19;5028658;28;1388;-69
2020/12/28 04:18:53;;;;;;;;;;;;;;;16.10;61.71;98360.84;5026906;28;1401;-69
2020/12/28 04:21:19;;;;;;;;;;;;;;;16.10;62.11;98352.13;5023118;28;1433;-69
2020/12/28 04:23:45;;;;;;;;;;;;;;;16.09;61.63;98364.44;5028178;28;1318;-70
2020/12/28 04:26:11;;;;;;;;;;;;;;;16.13;62.36;98365.00;5001012;28;1910;-69
2020/12/28 04:28:38;;;;;;;;;;;;;;;16.09;62.03;98364.44;5009865;28;1454;-69
2020/12/28 04:31:07;;;;;;;;;;;;;;;16.07;61.77;98355.03;5027685;28;1388;-69
2020/12/28 04:33:33;;;;;;;;;;;;;;;16.07;61.66;98350.59;5010263;28;1371;-69
2020/12/28 04:36:00;;;;;;;;;;;;;;;16.06;61.78;98343.69;5005017;28;1729;-69
2020/12/28 04:38:26;;;;;;;;;;;;;;;16.06;61.63;98375.19;5027663;28;1325;-69
2020/12/28 04:40:52;;;;;;;;;;;;;;;16.08;61.67;98378.50;5025211;28;1290;-67
2020/12/28 04:43:19;;;;;;;;;;;;;;;16.07;61.67;98386.53;5026618;28;1546;-67
2020/12/28 04:45:45;;;;;;;;;;;;;;;16.05;61.73;98383.22;5027896;28;1979;-68
2020/12/28 04:48:12;;;;;;;;;;;;;;;16.06;61.75;98377.81;5025035;28;1386;-67
2020/12/28 04:50:40;;;;;;;;;;;;;;;16.07;61.77;98370.78;5027823;28;1356;-68
2020/12/28 04:53:06;;;;;;;;;;;;;;;16.06;61.78;98366.47;5027689;28;1289;-68
2020/12/28 04:55:33;;;;;;;;;;;;;;;16.04;61.64;98371.03;5009989;28;1290;-70
2020/12/28 04:57:59;;;;;;;;;;;;;;;16.03;61.74;98361.47;5025219;28;1358;-68
2020/12/28 05:00:25;;;;;;;;;;;;;;;16.03;62.01;98369.34;5009733;28;1353;-69
2020/12/28 05:02:52;;;;;;;;;;;;;;;16.02;61.76;98378.22;5027632;28;1300;-70
2020/12/28 05:05:18;;;;;;;;;;;;;;;16.03;61.48;98374.59;5027291;28;1906;-70
2020/12/28 05:07:51;;;;;;;;;;;;;;;16.01;61.59;98366.03;5009475;28;1438;-70
2020/12/28 05:10:21;;;;;;;;;;;;;;;16.00;61.97;98375.69;5008591;28;1349;-70
2020/12/28 05:12:47;;;;;;;;;;;;;;;16.01;62.13;98381.78;5027365;28;1321;-69
2020/12/28 05:15:13;;;;;;;;;;;;;;;16.02;61.54;98367.72;5026543;28;1321;-67
2020/12/28 05:17:40;;;;;;;;;;;;;;;15.98;61.71;98351.38;5009520;28;1472;-67
2020/12/28 05:20:06;;;;;;;;;;;;;;;15.98;61.59;98363.66;5009602;28;1408;-67
2020/12/28 05:22:32;;;;;;;;;;;;;;;15.98;61.51;98376.78;5027289;28;1377;-65
2020/12/28 05:24:59;;;;;;;;;;;;;;;15.97;61.72;98369.84;5026994;28;1910;-66
2020/12/28 05:27:25;;;;;;;;;;;;;;;15.98;61.55;98366.28;5027427;28;1368;-68
2020/12/28 05:29:53;;;;;;;;;;;;;;;15.95;61.56;98342.91;5010011;28;1322;-68
2020/12/28 05:32:19;;;;;;;;;;;;;;;15.94;61.97;98334.19;4993311;28;1395;-68
2020/12/28 05:34:46;;;;;;;;;;;;;;;15.94;61.81;98334.19;5019335;28;1384;-68
2020/12/28 05:37:13;;;;;;;;;;;;;;;15.94;61.71;98328.94;5026465;28;1403;-68
2020/12/28 05:39:41;;;;;;;;;;;;;;;15.94;61.90;98349.94;5009658;28;1481;-68
2020/12/28 05:42:09;;;;;;;;;;;;;;;15.94;62.01;98370.94;5006987;28;1393;-68
2020/12/28 05:44:36;;;;;;;;;;;;;;;15.96;61.63;98404.97;5026871;28;1305;-68
2020/12/28 05:47:04;;;;;;;;;;;;;;;15.93;61.57;98408.66;5004325;28;1989;-68
2020/12/28 05:49:31;;;;;;;;;;;;;;;15.91;61.76;98423.72;5027051;28;1556;-68
2020/12/28 05:51:59;;;;;;;;;;;;;;;15.93;61.50;98410.47;5026939;28;1325;-68
2020/12/28 05:54:26;;;;;;;;;;;;;;;15.90;61.84;98380.03;5027005;28;1399;-69
2020/12/28 05:56:53;;;;;;;;;;;;;;;15.90;61.80;98356.41;5027291;28;1325;-68
2020/12/28 05:59:20;;;;;;;;;;;;;;;15.92;61.93;98380.75;5026872;28;1320;-69
2020/12/28 06:01:47;;;;;;;;;;;;;;;15.91;61.90;98346.72;5027445;28;1382;-69
2020/12/28 06:04:14;;;;;;;;;;;;;;;15.88;61.89;98303.19;5026766;28;1313;-69
2020/12/28 06:06:41;;;;;;;;;;;;;;;15.88;62.17;98328.63;5009215;28;1914;-67
2020/12/28 06:09:08;;;;;;;;;;;;;;;15.89;62.41;98352.13;4992785;28;1345;-68
2020/12/28 06:11:35;;;;;;;;;;;;;;;15.90;61.89;98384.47;5027310;28;1299;-69
2020/12/28 06:14:17;;;;;;;;;;;;;;;15.89;61.51;98378.38;5022181;28;1315;-67
2020/12/28 06:16:44;;;;;;;;;;;;;;;15.88;62.03;98333.84;5021708;28;1377;-67
2020/12/28 06:19:23;;;;;;;;;;;;;;;15.88;62.02;98321.56;5026228;28;1357;-70
2020/12/28 06:21:50;;;;;;;;;;;;;;;15.87;62.23;98361.09;5007659;28;1474;-69
2020/12/28 06:24:26;;;;;;;;;;;;;;;15.88;61.84;98386.38;5030090;28;1317;-71
2020/12/28 06:27:08;;;;;;;;;;;;;;;15.87;61.93;98403.09;5028528;28;1973;-69
2020/12/28 06:29:35;;;;;;;;;;;;;;;15.85;61.82;98414.56;5028827;28;1329;-70
2020/12/28 06:32:14;;;;;;;;;;;;;;;15.83;62.33;98395.47;5030083;28;1351;-70
2020/12/28 06:34:43;;;;;;;;;;;;;;;15.82;61.74;98396.41;5012310;28;1494;-69
2020/12/28 06:37:09;;;;;;;;;;;;;;;15.84;61.93;98410.25;5012441;28;1298;-69
2020/12/28 06:39:36;;;;;;;;;;;;;;;15.85;61.97;98409.31;5030204;28;1380;-69
2020/12/28 06:42:06;;;;;;;;;;;;;;;15.83;61.52;98429.59;5008951;28;1355;-69
2020/12/28 06:44:33;;;;;;;;;;;;;;;15.84;61.59;98464.53;5012540;28;1447;-68
2020/12/28 06:47:00;;;;;;;;;;;;;;;15.83;61.43;98474.22;5028431;28;1974;-70
2020/12/28 06:49:26;;;;;;;;;;;;;;;15.82;61.14;98476.97;5029906;28;1466;-69
2020/12/28 06:51:52;;;;;;;;;;;;;;;15.79;61.23;98469.34;5030323;28;1289;-69
2020/12/28 06:54:22;;;;;;;;;;;;;;;15.80;61.53;98429.84;5027438;28;1376;-70
2020/12/28 06:56:49;;;;;;;;;;;;;;;15.79;61.34;98443.91;5029946;28;1394;-69
2020/12/28 06:59:16;;;;;;;;;;;;;;;15.79;61.53;98457.03;5011299;28;1400;-69
2020/12/28 07:01:48;;;;;;;;;;;;;;;15.79;61.52;98464.09;5009845;28;1420;-68
2020/12/28 07:04:14;;;;;;;;;;;;;;;15.78;61.40;98475.53;5029195;28;1373;-68
2020/12/28 07:06:40;;;;;;;;;;;;;;;15.76;61.26;98478.28;5029030;28;2003;-69
2020/12/28 07:09:07;;;;;;;;;;;;;;;15.76;61.73;98472.19;5029275;28;1371;-69
2020/12/28 07:11:34;;;;;;;;;;;;;;;15.74;61.53;98467.09;5011072;28;1412;-69
2020/12/28 07:14:04;;;;;;;;;;;;;;;15.77;61.73;98481.75;5029225;28;1167;-68
2020/12/28 07:16:31;;;;;;;;;;;;;;;15.78;61.88;98505.25;5027623;28;1353;-68
2020/12/28 07:19:01;;;;;;;;;;;;;;;15.77;61.29;98523.75;5029257;28;1285;-69
2020/12/28 07:21:27;;;;;;;;;;;;;;;15.77;61.36;98516.72;5006580;28;1632;-68
2020/12/28 07:23:53;;;;;;;;;;;;;;;15.75;61.19;98495.00;5029531;28;1325;-68
2020/12/28 07:26:20;;;;;;;;;;;;;;;15.75;61.46;98508.09;5021162;28;1945;-69
2020/12/28 07:28:46;;;;;;;;;;;;;;;15.72;61.38;98523.25;5009303;28;1270;-69
2020/12/28 07:31:13;;;;;;;;;;;;;;;15.72;61.35;98513.59;5029575;28;1353;-69
2020/12/28 07:33:46;;;;;;;;;;;;;;;15.72;61.50;98508.34;5028228;28;1407;-68
2020/12/28 07:36:14;;;;;;;;;;;;;;;15.71;61.54;98513.75;5029572;28;1325;-69
2020/12/28 07:38:41;;;;;;;;;;;;;;;15.71;61.60;98517.22;5024982;28;1380;-68
2020/12/28 07:41:12;;;;;;;;;;;;;;;15.69;61.80;98526.97;5004302;28;1413;-67
2020/12/28 07:43:46;;;;;;;;;;;;;;;15.68;61.67;98543.69;5024902;28;1411;-68
2020/12/28 07:46:31;;;;;;;;;;;;;;;15.68;61.47;98541.06;5009663;28;1996;-68
2020/12/28 07:49:11;;;;;;;;;;;;;;;15.68;61.27;98558.59;5008342;28;1368;-68
2020/12/28 07:51:39;;;;;;;;;;;;;;;15.67;61.34;98560.38;5027849;28;1431;-68
2020/12/28 07:54:17;;;;;;;;;;;;;;;15.67;61.22;98547.25;4993774;28;1389;-69
2020/12/28 07:56:45;;;;;;;;;;;;;;;15.81;62.24;98549.63;5024761;28;1395;-66
2020/12/28 07:59:37;;;;;;;;;;;;;;;15.75;61.50;98575.53;5024645;28;1326;-68
2020/12/28 08:02:16;;;;;;;;;;;;;;;15.69;61.34;98571.59;5024646;28;1321;-66
2020/12/28 08:04:43;;;;;;;;;;;;;;;15.69;61.99;98583.88;5009681;28;1110;-67
2020/12/28 08:07:09;;;;;;;;;;;;;;;15.68;61.67;98597.97;5027233;28;1946;-67
2020/12/28 08:09:36;;;;;;;;;;;;;;;15.68;61.57;98604.06;5027396;28;1297;-67
2020/12/28 08:12:02;;;;;;;;;;;;;;;15.66;61.87;98598.06;5027596;28;1321;-67
2020/12/28 08:14:29;;;;;;;;;;;;;;;15.68;62.23;98590.94;4993974;28;1458;-68
2020/12/28 08:16:55;;;;;;;;;;;;;;;15.68;61.60;98596.19;5025615;28;1368;-64
2020/12/28 08:19:25;;;;;;;;;;;;;;;15.66;61.47;98613.81;5008431;28;1396;-64
2020/12/28 08:21:52;;;;;;;;;;;;;;;15.65;61.40;98601.69;5023006;28;1286;-64
2020/12/28 08:24:19;;;;;;;;;;;;;;;15.65;61.64;98593.81;5009269;28;1412;-64
2020/12/28 08:26:46;;;;;;;;;;;;;;;15.83;62.63;98609.91;5014284;28;1910;-66
2020/12/28 08:29:13;;;;;;;;;;;;;;;15.88;61.71;98622.66;5003843;28;1341;-62
2020/12/28 08:31:40;;;;;;;;;;;;;;;15.39;58.07;98600.16;5027146;28;1393;-66
2020/12/28 08:34:13;;;;;;;;;;;;;;;15.00;52.62;98603.19;5022123;28;1386;-66
2020/12/28 08:36:40;;;;;;;;;;;;;;;15.02;52.71;98611.75;5027131;28;1378;-62
2020/12/28 08:39:11;;;;;;;;;;;;;;;15.17;55.68;98587.00;5022633;28;1323;-63
2020/12/28 08:41:38;;;;;;;;;;;;;;;15.20;57.01;98597.25;5027962;28;1313;-63
2020/12/28 08:44:04;;;;;;;;;;;;;;;15.35;57.68;98582.97;5009783;28;1330;-67
2020/12/28 08:46:31;;;;;;;;;;;;;;;15.43;57.36;98596.38;5027612;28;1989;-66
2020/12/28 08:48:57;;;;;;;;;;;;;;;15.48;58.15;98599.50;5027294;28;1305;-67
2020/12/28 08:51:23;;;;;;;;;;;;;;;15.67;58.02;98610.25;5027650;28;1297;-67
2020/12/28 08:53:50;;;;;;;;;;;;;;;15.75;58.40;98610.47;5027443;28;1356;-66
2020/12/28 08:56:17;;;;;;;;;;;;;;;15.76;57.32;98622.66;5027738;28;1393;-65
2020/12/28 08:58:44;;;;;;;;;;;;;;;16.16;57.16;98632.69;5027745;28;1417;-67
2020/12/28 09:01:12;;;;;;;;;;;;;;;16.28;56.92;98613.31;5009563;28;1337;-69
2020/12/28 09:03:38;;;;;;;;;;;;;;;16.35;57.13;98614.50;5027250;28;1317;-69
2020/12/28 09:06:05;;;;;;;;;;;;;;;16.48;57.37;98599.41;5009025;28;1969;-68
2020/12/28 09:08:32;;;;;;;;;;;;;;;16.61;57.85;98610.63;5026823;28;1423;-70
2020/12/28 09:10:58;;;;;;;;;;;;;;;16.74;57.81;98634.13;5027121;28;1325;-70
2020/12/28 09:13:27;;;;;;;;;;;;;;;16.88;57.66;98628.56;5004066;28;1304;-69
2020/12/28 09:15:54;;;;;;;;;;;;;;;16.97;57.21;98604.16;5008255;28;1342;-69
2020/12/28 09:18:20;;;;;;;;;;;;;;;17.12;56.99;98602.03;5009587;28;1258;-69
2020/12/28 09:20:46;;;;;;;;;;;;;;;17.13;56.85;98619.50;4997604;28;1738;-67
2020/12/28 09:23:13;;;;;;;;;;;;;;;17.17;56.73;98618.28;5019338;28;1362;-71
2020/12/28 09:25:39;;;;;;;;;;;;;;;17.21;55.87;98627.56;5015705;28;1910;-73
2020/12/28 09:28:05;;;;;;;;;;;;;;;17.30;56.06;98624.16;5023927;28;1373;-70
2020/12/28 09:30:32;;;;;;;;;;;;;;;17.41;56.04;98622.31;5008141;28;1302;-71
2020/12/28 09:32:58;;;;;;;;;;;;;;;17.46;55.92;98616.66;5008116;28;1268;-68
2020/12/28 09:35:24;;;;;;;;;;;;;;;17.58;55.86;98644.59;5023998;28;1306;-69
2020/12/28 09:37:55;;;;;;;;;;;;;;;17.53;56.05;98635.41;5007353;28;1430;-69
2020/12/28 09:40:21;;;;;;;;;;;;;;;17.52;56.10;98636.34;5007701;28;1313;-68
2020/12/28 09:42:48;;;;;;;;;;;;;;;17.54;56.07;98635.25;5019325;28;1286;-68
2020/12/28 09:48:00;;;;;;;;;;;;;;;17.55;56.01;98660.66;5018103;28;1326;-68
2020/12/28 09:50:43;;;;;;;;;;;;;;;17.60;55.93;98650.56;5005356;28;1334;-68
2020/12/28 09:53:10;;;;;;;;;;;;;;;17.63;55.90;98655.56;4988123;28;1420;-67
2020/12/28 09:55:36;;;;;;;;;;;;;;;17.63;55.64;98668.75;5005239;28;1322;-66
2020/12/28 09:58:02;;;;;;;;;;;;;;;17.69;55.79;98672.69;5008095;28;1379;-66
2020/12/28 10:00:28;;;;;;;;;;;;;;;17.72;55.50;98678.50;5009649;28;1329;-68
2020/12/28 10:02:54;;;;;;;;;;;;;;;17.74;55.95;98679.22;5009588;28;1375;-68
2020/12/28 10:05:41;;;;;;;;;;;;;;;17.79;55.59;98698.09;5008039;28;1922;-68
2020/12/28 10:08:07;;;;;;;;;;;;;;;17.81;55.77;98706.69;4988803;28;1496;-68
2020/12/28 10:10:33;;;;;;;;;;;;;;;17.84;55.79;98711.69;4968082;28;1400;-68
2020/12/28 10:13:00;;;;;;;;;;;;;;;17.87;55.91;98695.63;4991953;28;1493;-67
2020/12/28 10:15:26;;;;;;;;;;;;;;;17.90;55.74;98678.75;4975427;28;1338;-68
2020/12/28 10:18:10;;;;;;;;;;;;;;;17.95;55.52;98698.47;5009357;28;1386;-66
2020/12/28 10:20:36;;;;;;;;;;;;;;;17.98;55.28;98677.13;5006175;28;1393;-67
2020/12/28 10:23:02;;;;;;;;;;;;;;;18.03;55.51;98690.72;4991649;28;1690;-67
2020/12/28 10:25:29;;;;;;;;;;;;;;;18.05;55.53;98687.13;4984428;28;1980;-67
2020/12/28 10:27:55;;;;;;;;;;;;;;;18.06;55.61;98687.00;5008109;28;1373;-67
2020/12/28 10:30:21;;;;;;;;;;;;;;;18.08;55.53;98676.34;5008048;28;1144;-67
2020/12/28 10:32:47;;;;;;;;;;;;;;;18.11;55.60;98687.44;5006055;28;1542;-66
2020/12/28 10:35:13;;;;;;;;;;;;;;;18.20;55.15;98683.19;4990963;28;1408;-69
2020/12/28 10:37:40;;;;;;;;;;;;;;;18.17;55.56;98684.28;5007528;28;1288;-68
2020/12/28 10:40:06;;;;;;;;;;;;;;;18.17;55.48;98697.47;5008348;28;1223;-68
2020/12/28 10:42:34;;;;;;;;;;;;;;;18.18;55.60;98693.84;4975062;28;1337;-68
2020/12/28 10:45:00;;;;;;;;;;;;;;;18.20;55.48;98683.19;5007700;28;1372;-70
2020/12/28 10:47:27;;;;;;;;;;;;;;;18.21;55.38;98677.75;4991591;28;1989;-69
2020/12/28 10:49:54;;;;;;;;;;;;;;;18.23;55.67;98675.84;5026815;28;1431;-69
2020/12/28 10:52:22;;;;;;;;;;;;;;;18.25;55.54;98675.69;5010911;28;1302;-69
2020/12/28 10:54:48;;;;;;;;;;;;;;;18.25;55.56;98684.44;5028181;28;1476;-69
2020/12/28 10:57:16;;;;;;;;;;;;;;;18.24;55.64;98651.13;5010216;28;1407;-69
2020/12/28 10:59:42;;;;;;;;;;;;;;;18.34;55.22;98661.72;5010441;28;1318;-71
2020/12/28 11:02:08;;;;;;;;;;;;;;;18.29;55.68;98680.59;5027378;28;1345;-68
2020/12/28 11:04:35;;;;;;;;;;;;;;;18.26;55.91;98649.22;5027031;28;1491;-68
2020/12/28 11:07:01;;;;;;;;;;;;;;;18.24;55.95;98661.69;5026833;28;1918;-68
2020/12/28 11:09:27;;;;;;;;;;;;;;;18.20;56.13;98635.75;5026134;28;1286;-69
2020/12/28 11:11:53;;;;;;;;;;;;;;;18.19;56.59;98652.50;5009721;28;1306;-68
2020/12/28 11:14:20;;;;;;;;;;;;;;;18.15;56.54;98643.22;5026977;28;1823;-69
2020/12/28 11:16:47;;;;;;;;;;;;;;;18.20;58.50;98654.19;5028878;28;1325;-70
2020/12/28 11:19:13;;;;;;;;;;;;;;;18.19;58.40;98642.81;5011374;28;1290;-69
2020/12/28 11:21:42;;;;;;;;;;;;;;;18.24;59.83;98645.06;5011780;28;1300;-69
2020/12/28 11:24:09;;;;;;;;;;;;;;;18.27;60.08;98639.53;5011090;28;1488;-70
2020/12/28 11:26:35;;;;;;;;;;;;;;;18.44;60.40;98644.13;5027429;28;1914;-67
2020/12/28 11:29:03;;;;;;;;;;;;;;;18.35;60.44;98642.31;5002876;28;1175;-70
2020/12/28 11:31:31;;;;;;;;;;;;;;;18.38;60.67;98648.16;5024120;28;1378;-69
2020/12/28 11:33:58;;;;;;;;;;;;;;;18.48;60.26;98648.19;5009320;28;1420;-69
2020/12/28 11:36:24;;;;;;;;;;;;;;;18.61;59.64;98647.94;5026840;28;1411;-69
2020/12/28 11:38:52;;;;;;;;;;;;;;;18.67;60.08;98653.50;5022398;28;1311;-70
2020/12/28 11:41:18;;;;;;;;;;;;;;;18.67;59.42;98661.41;5027616;28;1327;-70
2020/12/28 11:43:45;;;;;;;;;;;;;;;18.63;58.64;98646.84;5019649;28;1352;-69
2020/12/28 11:46:11;;;;;;;;;;;;;;;18.59;59.03;98640.16;5020192;28;1953;-71
2020/12/28 11:48:39;;;;;;;;;;;;;;;18.55;59.39;98646.69;5008251;28;1412;-67
2020/12/28 11:51:06;;;;;;;;;;;;;;;18.56;59.22;98651.00;5025376;28;1618;-69
2020/12/28 11:53:33;;;;;;;;;;;;;;;18.54;59.48;98627.38;5009471;28;1365;-69
2020/12/28 11:56:11;;;;;;;;;;;;;;;18.57;59.08;98647.41;5009212;28;1361;-70
2020/12/28 11:58:39;;;;;;;;;;;;;;;18.57;59.08;98630.72;5005866;28;1331;-70
2020/12/28 12:01:10;;;;;;;;;;;;;;;18.54;58.89;98645.84;5023036;28;1365;-70
2020/12/28 12:03:36;;;;;;;;;;;;;;;18.54;59.10;98634.47;5027191;28;1347;-70
2020/12/28 12:06:02;;;;;;;;;;;;;;;18.58;58.85;98604.22;5027304;28;1906;-69
2020/12/28 12:08:29;;;;;;;;;;;;;;;18.55;58.85;98607.13;5027193;28;1360;-70
2020/12/28 12:10:55;;;;;;;;;;;;;;;18.55;58.86;98622.94;5027440;28;1304;-70
2020/12/28 12:13:21;;;;;;;;;;;;;;;18.55;58.64;98609.75;5009621;28;1325;-70
2020/12/28 12:15:49;;;;;;;;;;;;;;;18.55;58.63;98589.50;5026663;28;1277;-70
2020/12/28 12:18:18;;;;;;;;;;;;;;;18.49;56.19;98586.59;5023860;28;1321;-70
2020/12/28 12:20:44;;;;;;;;;;;;;;;18.53;57.72;98620.47;4987410;28;1346;-70
2020/12/28 12:23:10;;;;;;;;;;;;;;;18.51;57.87;98576.75;5020139;28;1361;-70
2020/12/28 12:25:37;;;;;;;;;;;;;;;18.53;57.51;98624.91;5026185;28;1914;-71
2020/12/28 12:28:03;;;;;;;;;;;;;;;18.52;57.89;98615.31;5026333;28;1305;-69
2020/12/28 12:30:29;;;;;;;;;;;;;;;18.50;58.07;98614.63;5008719;28;1401;-70
2020/12/28 12:32:59;;;;;;;;;;;;;;;18.50;58.32;98609.34;5026878;28;1313;-69
2020/12/28 12:35:30;;;;;;;;;;;;;;;18.48;57.39;98642.91;5009287;28;1161;-67
2020/12/28 12:37:56;;;;;;;;;;;;;;;18.46;56.17;98608.75;5008573;28;1300;-67
2020/12/28 12:40:23;;;;;;;;;;;;;;;18.44;55.31;98620.41;5026926;28;1163;-69
2020/12/28 12:42:49;;;;;;;;;;;;;;;18.45;53.98;98608.91;5008600;28;1296;-68
2020/12/28 12:45:16;;;;;;;;;;;;;;;18.52;51.22;98626.69;4984344;28;1231;-68
2020/12/28 12:47:42;;;;;;;;;;;;;;;18.43;53.07;98618.72;5008634;28;1996;-65
2020/12/28 12:50:09;;;;;;;;;;;;;;;18.59;51.35;98626.16;5026579;28;1404;-67
2020/12/28 12:52:35;;;;;;;;;;;;;;;18.61;54.63;98627.69;5024586;28;1355;-65
2020/12/28 12:55:01;;;;;;;;;;;;;;;18.67;55.33;98647.38;5026041;28;1301;-69
2020/12/28 12:57:28;;;;;;;;;;;;;;;18.71;55.58;98636.44;5025899;28;1298;-67
2020/12/28 13:02:30;;;;;;;;;;;;;;;18.82;55.27;98636.31;5025435;28;1296;-67
2020/12/28 13:05:00;;;;;;;;;;;;;;;18.82;55.63;98638.94;5025813;28;1349;-67